sensor_id;sensor_type;location;lat;lon;timestamp;temperature;humidity
49184;DHT22;35021;49.214;12.270;2024-03-02T00:00:21;21.20;37.30
49184;DHT22;35021;49.214;12.270;2024-03-02T00:02:49;21.20;37.30
49184;DHT22;35021;49.214;12.270;2024-03-02T00:05:20;21.20;37.30
49184;DHT22;35021;49.214;12.270;2024-03-02T00:07:52;21.20;37.20
49184;DHT22;35021;49.214;12.270;2024-03-02T00:10:20;21.10;37.20
49184;DHT22;35021;49.214;12.270;2024-03-02T00:12:47;21.10;37.30
49184;DHT22;35021;49.214;12.270;2024-03-02T00:15:33;21.10;37.40
49184;DHT22;35021;49.214;12.270;2024-03-02T00:18:05;21.10;37.40
49184;DHT22;35021;49.214;12.270;2024-03-02T00:20:33;21.10;37.50
49184;DHT22;35021;49.214;12.270;2024-03-02T00:23:02;21.00;37.80
49184;DHT22;35021;49.214;12.270;2024-03-02T00:25:37;21.00;37.50
49184;DHT22;35021;49.214;12.270;2024-03-02T00:28:04;21.00;37.50
49184;DHT22;35021;49.214;12.270;2024-03-02T00:30:42;21.00;37.50
49184;DHT22;35021;49.214;12.270;2024-03-02T00:33:13;21.00;37.50
49184;DHT22;35021;49.214;12.270;2024-03-02T00:35:40;21.00;37.50
49184;DHT22;35021;49.214;12.270;2024-03-02T00:38:10;21.00;37.50
49184;DHT22;35021;49.214;12.270;2024-03-02T00:40:37;21.00;37.60
49184;DHT22;35021;49.214;12.270;2024-03-02T00:43:04;21.00;37.60
49184;DHT22;35021;49.214;12.270;2024-03-02T00:45:31;21.00;37.60
49184;DHT22;35021;49.214;12.270;2024-03-02T00:47:58;21.00;37.70
49184;DHT22;35021;49.214;12.270;2024-03-02T00:50:26;21.00;37.70
49184;DHT22;35021;49.214;12.270;2024-03-02T00:52:57;21.00;37.70
49184;DHT22;35021;49.214;12.270;2024-03-02T00:55:24;21.00;37.60
49184;DHT22;35021;49.214;12.270;2024-03-02T00:57:51;21.00;37.60
49184;DHT22;35021;49.214;12.270;2024-03-02T01:00:18;21.00;37.60
49184;DHT22;35021;49.214;12.270;2024-03-02T01:02:45;21.00;37.60
49184;DHT22;35021;49.214;12.270;2024-03-02T01:05:13;21.00;37.60
49184;DHT22;35021;49.214;12.270;2024-03-02T01:07:40;21.00;37.50
49184;DHT22;35021;49.214;12.270;2024-03-02T01:10:07;21.00;37.60
49184;DHT22;35021;49.214;12.270;2024-03-02T01:12:34;21.00;37.60
49184;DHT22;35021;49.214;12.270;2024-03-02T01:15:01;21.00;37.60
49184;DHT22;35021;49.214;12.270;2024-03-02T01:17:31;21.10;37.70
49184;DHT22;35021;49.214;12.270;2024-03-02T01:19:57;21.00;37.60
49184;DHT22;35021;49.214;12.270;2024-03-02T01:22:24;21.00;37.60
49184;DHT22;35021;49.214;12.270;2024-03-02T01:24:52;21.10;37.70
49184;DHT22;35021;49.214;12.270;2024-03-02T01:27:19;21.10;37.70
49184;DHT22;35021;49.214;12.270;2024-03-02T01:29:46;21.10;37.70
49184;DHT22;35021;49.214;12.270;2024-03-02T01:32:13;21.10;37.70
49184;DHT22;35021;49.214;12.270;2024-03-02T01:34:40;21.10;37.70
49184;DHT22;35021;49.214;12.270;2024-03-02T01:37:07;21.10;37.70
49184;DHT22;35021;49.214;12.270;2024-03-02T01:39:34;21.10;37.70
49184;DHT22;35021;49.214;12.270;2024-03-02T01:42:01;21.10;37.70
49184;DHT22;35021;49.214;12.270;2024-03-02T01:44:28;21.10;37.70
49184;DHT22;35021;49.214;12.270;2024-03-02T01:46:55;21.10;37.80
49184;DHT22;35021;49.214;12.270;2024-03-02T01:49:22;21.10;37.80
49184;DHT22;35021;49.214;12.270;2024-03-02T01:51:49;21.10;37.70
49184;DHT22;35021;49.214;12.270;2024-03-02T01:54:16;21.10;37.80
49184;DHT22;35021;49.214;12.270;2024-03-02T01:56:43;21.10;37.80
49184;DHT22;35021;49.214;12.270;2024-03-02T01:59:11;21.10;37.80
49184;DHT22;35021;49.214;12.270;2024-03-02T02:01:39;21.10;37.80
49184;DHT22;35021;49.214;12.270;2024-03-02T02:04:06;21.10;37.80
49184;DHT22;35021;49.214;12.270;2024-03-02T02:06:33;21.10;37.80
49184;DHT22;35021;49.214;12.270;2024-03-02T02:09:00;21.10;37.80
49184;DHT22;35021;49.214;12.270;2024-03-02T02:11:28;21.10;37.80
49184;DHT22;35021;49.214;12.270;2024-03-02T02:13:55;21.10;37.90
49184;DHT22;35021;49.214;12.270;2024-03-02T02:16:24;21.10;37.90
49184;DHT22;35021;49.214;12.270;2024-03-02T02:18:51;21.10;37.90
49184;DHT22;35021;49.214;12.270;2024-03-02T02:21:22;21.10;37.90
49184;DHT22;35021;49.214;12.270;2024-03-02T02:23:49;21.10;38.00
49184;DHT22;35021;49.214;12.270;2024-03-02T02:26:17;21.10;38.00
49184;DHT22;35021;49.214;12.270;2024-03-02T02:28:43;21.00;37.90
49184;DHT22;35021;49.214;12.270;2024-03-02T02:31:14;21.00;38.10
49184;DHT22;35021;49.214;12.270;2024-03-02T02:33:41;21.00;38.10
49184;DHT22;35021;49.214;12.270;2024-03-02T02:36:08;21.00;38.20
49184;DHT22;35021;49.214;12.270;2024-03-02T02:38:40;21.00;38.20
49184;DHT22;35021;49.214;12.270;2024-03-02T02:41:09;20.90;38.20
49184;DHT22;35021;49.214;12.270;2024-03-02T02:43:36;20.90;38.20
49184;DHT22;35021;49.214;12.270;2024-03-02T02:46:03;20.90;38.30
49184;DHT22;35021;49.214;12.270;2024-03-02T02:48:30;20.90;38.30
49184;DHT22;35021;49.214;12.270;2024-03-02T02:50:57;20.90;38.30
49184;DHT22;35021;49.214;12.270;2024-03-02T02:53:24;20.90;38.40
49184;DHT22;35021;49.214;12.270;2024-03-02T02:55:51;20.90;38.30
49184;DHT22;35021;49.214;12.270;2024-03-02T02:58:18;20.90;38.40
49184;DHT22;35021;49.214;12.270;2024-03-02T03:00:45;20.90;38.30
49184;DHT22;35021;49.214;12.270;2024-03-02T03:03:12;20.90;38.40
49184;DHT22;35021;49.214;12.270;2024-03-02T03:05:39;20.90;38.40
49184;DHT22;35021;49.214;12.270;2024-03-02T03:08:06;20.90;38.40
49184;DHT22;35021;49.214;12.270;2024-03-02T03:10:33;20.90;38.40
49184;DHT22;35021;49.214;12.270;2024-03-02T03:13:00;20.90;38.30
49184;DHT22;35021;49.214;12.270;2024-03-02T03:15:28;20.90;38.30
49184;DHT22;35021;49.214;12.270;2024-03-02T03:17:55;20.90;38.40
49184;DHT22;35021;49.214;12.270;2024-03-02T03:20:22;20.90;38.30
49184;DHT22;35021;49.214;12.270;2024-03-02T03:22:50;20.90;38.30
49184;DHT22;35021;49.214;12.270;2024-03-02T03:25:17;20.90;38.30
49184;DHT22;35021;49.214;12.270;2024-03-02T03:27:44;20.90;38.40
49184;DHT22;35021;49.214;12.270;2024-03-02T03:30:11;20.90;38.30
49184;DHT22;35021;49.214;12.270;2024-03-02T03:32:38;20.90;38.40
49184;DHT22;35021;49.214;12.270;2024-03-02T03:35:05;20.90;38.40
49184;DHT22;35021;49.214;12.270;2024-03-02T03:37:33;20.90;38.40
49184;DHT22;35021;49.214;12.270;2024-03-02T03:40:02;20.90;38.40
49184;DHT22;35021;49.214;12.270;2024-03-02T03:42:30;20.90;38.40
49184;DHT22;35021;49.214;12.270;2024-03-02T03:44:57;20.80;38.30
49184;DHT22;35021;49.214;12.270;2024-03-02T03:47:23;20.90;38.40
49184;DHT22;35021;49.214;12.270;2024-03-02T03:49:50;20.90;38.40
49184;DHT22;35021;49.214;12.270;2024-03-02T03:52:17;20.90;38.40
49184;DHT22;35021;49.214;12.270;2024-03-02T03:54:44;20.80;38.30
49184;DHT22;35021;49.214;12.270;2024-03-02T03:57:11;20.80;38.30
49184;DHT22;35021;49.214;12.270;2024-03-02T03:59:38;20.90;38.40
49184;DHT22;35021;49.214;12.270;2024-03-02T04:02:05;20.80;38.30
49184;DHT22;35021;49.214;12.270;2024-03-02T04:04:32;20.80;38.30
49184;DHT22;35021;49.214;12.270;2024-03-02T04:07:00;20.80;38.40
49184;DHT22;35021;49.214;12.270;2024-03-02T04:09:27;20.80;38.40
49184;DHT22;35021;49.214;12.270;2024-03-02T04:11:54;20.80;38.40
49184;DHT22;35021;49.214;12.270;2024-03-02T04:14:21;20.80;38.50
49184;DHT22;35021;49.214;12.270;2024-03-02T04:16:50;20.70;38.40
49184;DHT22;35021;49.214;12.270;2024-03-02T04:19:17;20.80;38.50
49184;DHT22;35021;49.214;12.270;2024-03-02T04:21:44;20.70;38.50
49184;DHT22;35021;49.214;12.270;2024-03-02T04:24:11;20.70;38.50
49184;DHT22;35021;49.214;12.270;2024-03-02T04:26:38;20.70;38.50
49184;DHT22;35021;49.214;12.270;2024-03-02T04:29:04;20.70;38.50
49184;DHT22;35021;49.214;12.270;2024-03-02T04:31:32;20.70;38.60
49184;DHT22;35021;49.214;12.270;2024-03-02T04:33:59;20.70;38.60
49184;DHT22;35021;49.214;12.270;2024-03-02T04:36:26;20.70;38.70
49184;DHT22;35021;49.214;12.270;2024-03-02T04:38:53;20.60;38.70
49184;DHT22;35021;49.214;12.270;2024-03-02T04:41:19;20.60;38.70
49184;DHT22;35021;49.214;12.270;2024-03-02T04:43:46;20.60;38.80
49184;DHT22;35021;49.214;12.270;2024-03-02T04:46:13;20.60;38.90
49184;DHT22;35021;49.214;12.270;2024-03-02T04:48:40;20.60;38.90
49184;DHT22;35021;49.214;12.270;2024-03-02T04:51:07;20.60;38.90
49184;DHT22;35021;49.214;12.270;2024-03-02T04:53:34;20.60;38.80
49184;DHT22;35021;49.214;12.270;2024-03-02T04:56:01;20.70;38.70
49184;DHT22;35021;49.214;12.270;2024-03-02T04:58:28;20.80;38.70
49184;DHT22;35021;49.214;12.270;2024-03-02T05:00:55;20.90;38.60
49184;DHT22;35021;49.214;12.270;2024-03-02T05:03:23;21.00;38.30
49184;DHT22;35021;49.214;12.270;2024-03-02T05:05:51;21.10;38.20
49184;DHT22;35021;49.214;12.270;2024-03-02T05:08:18;21.20;38.00
49184;DHT22;35021;49.214;12.270;2024-03-02T05:10:45;21.30;37.90
49184;DHT22;35021;49.214;12.270;2024-03-02T05:13:12;21.40;38.40
49184;DHT22;35021;49.214;12.270;2024-03-02T05:15:39;21.50;37.50
49184;DHT22;35021;49.214;12.270;2024-03-02T05:18:07;21.70;37.40
49184;DHT22;35021;49.214;12.270;2024-03-02T05:20:34;21.80;37.20
49184;DHT22;35021;49.214;12.270;2024-03-02T05:23:01;21.80;37.00
49184;DHT22;35021;49.214;12.270;2024-03-02T05:25:28;21.90;36.90
49184;DHT22;35021;49.214;12.270;2024-03-02T05:27:55;22.00;36.90
49184;DHT22;35021;49.214;12.270;2024-03-02T05:30:22;22.00;36.80
49184;DHT22;35021;49.214;12.270;2024-03-02T05:32:49;22.00;36.70
49184;DHT22;35021;49.214;12.270;2024-03-02T05:35:16;22.00;36.80
49184;DHT22;35021;49.214;12.270;2024-03-02T05:37:43;21.90;36.70
49184;DHT22;35021;49.214;12.270;2024-03-02T05:40:10;21.90;36.80
49184;DHT22;35021;49.214;12.270;2024-03-02T05:42:38;21.90;36.90
49184;DHT22;35021;49.214;12.270;2024-03-02T05:45:05;21.90;36.90
49184;DHT22;35021;49.214;12.270;2024-03-02T05:47:32;21.90;36.90
49184;DHT22;35021;49.214;12.270;2024-03-02T05:49:59;21.90;36.90
49184;DHT22;35021;49.214;12.270;2024-03-02T05:52:26;22.00;36.80
49184;DHT22;35021;49.214;12.270;2024-03-02T05:54:54;22.00;36.70
49184;DHT22;35021;49.214;12.270;2024-03-02T05:57:22;22.10;36.60
49184;DHT22;35021;49.214;12.270;2024-03-02T06:00:07;22.10;36.50
49184;DHT22;35021;49.214;12.270;2024-03-02T06:02:35;22.20;36.40
49184;DHT22;35021;49.214;12.270;2024-03-02T06:05:05;22.30;36.40
49184;DHT22;35021;49.214;12.270;2024-03-02T06:07:33;22.40;36.40
49184;DHT22;35021;49.214;12.270;2024-03-02T06:10:00;22.30;36.30
49184;DHT22;35021;49.214;12.270;2024-03-02T06:12:30;22.40;36.40
49184;DHT22;35021;49.214;12.270;2024-03-02T06:14:57;22.30;36.40
49184;DHT22;35021;49.214;12.270;2024-03-02T06:17:24;22.30;37.20
49184;DHT22;35021;49.214;12.270;2024-03-02T06:19:51;22.20;36.50
49184;DHT22;35021;49.214;12.270;2024-03-02T06:22:18;22.20;36.60
49184;DHT22;35021;49.214;12.270;2024-03-02T06:24:45;22.20;36.70
49184;DHT22;35021;49.214;12.270;2024-03-02T06:27:12;22.20;36.70
49184;DHT22;35021;49.214;12.270;2024-03-02T06:29:39;22.20;36.70
49184;DHT22;35021;49.214;12.270;2024-03-02T06:32:06;22.20;36.70
49184;DHT22;35021;49.214;12.270;2024-03-02T06:34:33;22.30;36.70
49184;DHT22;35021;49.214;12.270;2024-03-02T06:37:00;22.30;36.60
49184;DHT22;35021;49.214;12.270;2024-03-02T06:39:28;22.30;36.40
49184;DHT22;35021;49.214;12.270;2024-03-02T06:41:55;22.40;36.30
49184;DHT22;35021;49.214;12.270;2024-03-02T06:44:21;22.50;36.30
49184;DHT22;35021;49.214;12.270;2024-03-02T06:46:48;22.50;36.20
49184;DHT22;35021;49.214;12.270;2024-03-02T06:49:15;22.60;36.20
49184;DHT22;35021;49.214;12.270;2024-03-02T06:51:44;22.60;36.20
49184;DHT22;35021;49.214;12.270;2024-03-02T06:54:11;22.50;36.20
49184;DHT22;35021;49.214;12.270;2024-03-02T06:56:38;22.50;36.30
49184;DHT22;35021;49.214;12.270;2024-03-02T06:59:05;22.40;36.40
49184;DHT22;35021;49.214;12.270;2024-03-02T07:01:32;22.40;36.50
49184;DHT22;35021;49.214;12.270;2024-03-02T07:03:59;22.40;36.60
49184;DHT22;35021;49.214;12.270;2024-03-02T07:06:26;22.30;36.60
49184;DHT22;35021;49.214;12.270;2024-03-02T07:08:53;22.30;36.70
49184;DHT22;35021;49.214;12.270;2024-03-02T07:11:20;22.30;36.70
49184;DHT22;35021;49.214;12.270;2024-03-02T07:13:47;22.30;36.70
49184;DHT22;35021;49.214;12.270;2024-03-02T07:16:14;22.30;36.80
49184;DHT22;35021;49.214;12.270;2024-03-02T07:18:59;22.30;36.80
49184;DHT22;35021;49.214;12.270;2024-03-02T07:21:28;22.30;36.70
49184;DHT22;35021;49.214;12.270;2024-03-02T07:23:55;22.40;36.70
49184;DHT22;35021;49.214;12.270;2024-03-02T07:26:22;22.40;36.70
49184;DHT22;35021;49.214;12.270;2024-03-02T07:28:52;22.30;37.60
49184;DHT22;35021;49.214;12.270;2024-03-02T07:31:19;22.30;37.00
49184;DHT22;35021;49.214;12.270;2024-03-02T07:33:46;22.20;37.00
49184;DHT22;35021;49.214;12.270;2024-03-02T07:36:14;22.10;37.10
49184;DHT22;35021;49.214;12.270;2024-03-02T07:38:41;22.00;37.30
49184;DHT22;35021;49.214;12.270;2024-03-02T07:41:09;22.00;37.50
49184;DHT22;35021;49.214;12.270;2024-03-02T07:43:38;21.90;37.50
49184;DHT22;35021;49.214;12.270;2024-03-02T07:46:05;21.90;37.50
49184;DHT22;35021;49.214;12.270;2024-03-02T07:48:32;21.90;37.60
49184;DHT22;35021;49.214;12.270;2024-03-02T07:50:59;22.00;37.60
49184;DHT22;35021;49.214;12.270;2024-03-02T07:53:27;22.00;37.50
49184;DHT22;35021;49.214;12.270;2024-03-02T07:55:54;22.10;37.50
49184;DHT22;35021;49.214;12.270;2024-03-02T07:58:21;22.10;37.40
49184;DHT22;35021;49.214;12.270;2024-03-02T08:00:48;22.10;37.30
49184;DHT22;35021;49.214;12.270;2024-03-02T08:03:18;22.20;37.20
49184;DHT22;35021;49.214;12.270;2024-03-02T08:05:45;22.20;37.20
49184;DHT22;35021;49.214;12.270;2024-03-02T08:08:12;22.20;37.90
49184;DHT22;35021;49.214;12.270;2024-03-02T08:10:42;22.20;37.30
49184;DHT22;35021;49.214;12.270;2024-03-02T08:13:11;22.10;37.30
49184;DHT22;35021;49.214;12.270;2024-03-02T08:15:38;22.10;37.50
49184;DHT22;35021;49.214;12.270;2024-03-02T08:18:05;22.00;37.60
49184;DHT22;35021;49.214;12.270;2024-03-02T08:20:32;21.90;37.70
49184;DHT22;35021;49.214;12.270;2024-03-02T08:22:59;21.80;37.80
49184;DHT22;35021;49.214;12.270;2024-03-02T08:25:26;21.80;38.00
49184;DHT22;35021;49.214;12.270;2024-03-02T08:27:53;21.70;38.10
49184;DHT22;35021;49.214;12.270;2024-03-02T08:30:21;21.70;38.20
49184;DHT22;35021;49.214;12.270;2024-03-02T08:32:49;21.70;38.20
49184;DHT22;35021;49.214;12.270;2024-03-02T08:35:16;21.70;38.20
49184;DHT22;35021;49.214;12.270;2024-03-02T08:37:43;21.80;38.30
49184;DHT22;35021;49.214;12.270;2024-03-02T08:40:11;21.80;38.20
49184;DHT22;35021;49.214;12.270;2024-03-02T08:42:42;21.80;38.20
49184;DHT22;35021;49.214;12.270;2024-03-02T08:45:09;21.90;38.10
49184;DHT22;35021;49.214;12.270;2024-03-02T08:47:36;21.90;38.10
49184;DHT22;35021;49.214;12.270;2024-03-02T08:50:03;22.00;38.10
49184;DHT22;35021;49.214;12.270;2024-03-02T08:52:32;22.00;38.10
49184;DHT22;35021;49.214;12.270;2024-03-02T08:54:59;22.10;38.00
49184;DHT22;35021;49.214;12.270;2024-03-02T08:57:26;22.10;37.90
49184;DHT22;35021;49.214;12.270;2024-03-02T08:59:53;22.10;37.80
49184;DHT22;35021;49.214;12.270;2024-03-02T09:02:20;22.10;37.90
49184;DHT22;35021;49.214;12.270;2024-03-02T09:04:47;22.10;37.90
49184;DHT22;35021;49.214;12.270;2024-03-02T09:07:14;22.00;38.00
49184;DHT22;35021;49.214;12.270;2024-03-02T09:09:41;21.90;38.00
49184;DHT22;35021;49.214;12.270;2024-03-02T09:12:08;21.90;38.20
49184;DHT22;35021;49.214;12.270;2024-03-02T09:14:35;21.80;38.20
49184;DHT22;35021;49.214;12.270;2024-03-02T09:17:03;21.80;38.40
49184;DHT22;35021;49.214;12.270;2024-03-02T09:19:30;21.70;38.30
49184;DHT22;35021;49.214;12.270;2024-03-02T09:21:57;21.70;38.30
49184;DHT22;35021;49.214;12.270;2024-03-02T09:24:25;21.80;38.20
49184;DHT22;35021;49.214;12.270;2024-03-02T09:26:58;21.80;38.10
49184;DHT22;35021;49.214;12.270;2024-03-02T09:29:25;21.90;38.00
49184;DHT22;35021;49.214;12.270;2024-03-02T09:31:52;21.90;38.00
49184;DHT22;35021;49.214;12.270;2024-03-02T09:34:19;22.00;37.90
49184;DHT22;35021;49.214;12.270;2024-03-02T09:36:46;22.10;37.80
49184;DHT22;35021;49.214;12.270;2024-03-02T09:39:13;22.10;37.60
49184;DHT22;35021;49.214;12.270;2024-03-02T09:41:41;22.10;38.20
49184;DHT22;35021;49.214;12.270;2024-03-02T09:44:08;22.10;37.40
49184;DHT22;35021;49.214;12.270;2024-03-02T09:46:35;22.10;37.40
49184;DHT22;35021;49.214;12.270;2024-03-02T09:49:03;22.10;37.40
49184;DHT22;35021;49.214;12.270;2024-03-02T09:51:31;22.10;37.50
49184;DHT22;35021;49.214;12.270;2024-03-02T09:53:58;22.00;37.50
49184;DHT22;35021;49.214;12.270;2024-03-02T09:56:46;22.00;37.60
49184;DHT22;35021;49.214;12.270;2024-03-02T09:59:13;21.90;37.70
49184;DHT22;35021;49.214;12.270;2024-03-02T10:01:55;21.90;37.70
49184;DHT22;35021;49.214;12.270;2024-03-02T10:04:23;21.90;37.80
49184;DHT22;35021;49.214;12.270;2024-03-02T10:06:50;22.00;37.80
49184;DHT22;35021;49.214;12.270;2024-03-02T10:09:27;22.00;37.70
49184;DHT22;35021;49.214;12.270;2024-03-02T10:12:01;22.10;37.60
49184;DHT22;35021;49.214;12.270;2024-03-02T10:14:30;22.10;37.40
49184;DHT22;35021;49.214;12.270;2024-03-02T10:17:03;22.20;37.30
49184;DHT22;35021;49.214;12.270;2024-03-02T10:19:31;22.20;37.20
49184;DHT22;35021;49.214;12.270;2024-03-02T10:22:04;22.30;37.10
49184;DHT22;35021;49.214;12.270;2024-03-02T10:24:39;22.40;37.00
49184;DHT22;35021;49.214;12.270;2024-03-02T10:27:07;22.40;36.90
49184;DHT22;35021;49.214;12.270;2024-03-02T10:29:39;22.40;36.80
49184;DHT22;35021;49.214;12.270;2024-03-02T10:32:09;22.50;36.80
49184;DHT22;35021;49.214;12.270;2024-03-02T10:34:41;22.60;36.90
49184;DHT22;35021;49.214;12.270;2024-03-02T10:37:10;22.60;36.90
49184;DHT22;35021;49.214;12.270;2024-03-02T10:39:37;22.70;36.90
49184;DHT22;35021;49.214;12.270;2024-03-02T10:42:06;22.80;36.90
49184;DHT22;35021;49.214;12.270;2024-03-02T10:44:34;22.90;36.90
49184;DHT22;35021;49.214;12.270;2024-03-02T10:47:02;22.90;36.90
49184;DHT22;35021;49.214;12.270;2024-03-02T10:49:31;23.00;36.70
49184;DHT22;35021;49.214;12.270;2024-03-02T10:51:58;23.10;36.80
49184;DHT22;35021;49.214;12.270;2024-03-02T10:54:26;23.20;36.60
49184;DHT22;35021;49.214;12.270;2024-03-02T10:56:54;23.20;36.40
49184;DHT22;35021;49.214;12.270;2024-03-02T11:01:53;23.40;36.30
49184;DHT22;35021;49.214;12.270;2024-03-02T11:04:22;23.50;36.20
49184;DHT22;35021;49.214;12.270;2024-03-02T11:06:51;23.50;36.00
49184;DHT22;35021;49.214;12.270;2024-03-02T11:09:19;23.60;36.00
49184;DHT22;35021;49.214;12.270;2024-03-02T11:11:49;23.70;35.90
49184;DHT22;35021;49.214;12.270;2024-03-02T11:14:20;23.70;35.60
49184;DHT22;35021;49.214;12.270;2024-03-02T11:16:48;23.80;35.50
49184;DHT22;35021;49.214;12.270;2024-03-02T11:19:15;23.80;35.30
49184;DHT22;35021;49.214;12.270;2024-03-02T11:21:44;23.90;35.30
49184;DHT22;35021;49.214;12.270;2024-03-02T11:26:47;23.90;35.10
49184;DHT22;35021;49.214;12.270;2024-03-02T11:29:42;23.90;35.10
49184;DHT22;35021;49.214;12.270;2024-03-02T11:32:16;23.90;35.10
49184;DHT22;35021;49.214;12.270;2024-03-02T11:34:47;23.90;35.00
49184;DHT22;35021;49.214;12.270;2024-03-02T11:37:16;24.00;35.00
49184;DHT22;35021;49.214;12.270;2024-03-02T11:39:46;24.10;35.00
49184;DHT22;35021;49.214;12.270;2024-03-02T11:42:14;24.10;34.90
49184;DHT22;35021;49.214;12.270;2024-03-02T11:44:42;24.20;35.00
49184;DHT22;35021;49.214;12.270;2024-03-02T11:47:10;24.20;34.90
49184;DHT22;35021;49.214;12.270;2024-03-02T11:52:06;24.20;34.90
49184;DHT22;35021;49.214;12.270;2024-03-02T11:54:37;24.20;35.00
49184;DHT22;35021;49.214;12.270;2024-03-02T11:57:06;24.20;35.00
49184;DHT22;35021;49.214;12.270;2024-03-02T11:59:33;24.20;35.10
49184;DHT22;35021;49.214;12.270;2024-03-02T12:02:03;24.00;35.20
49184;DHT22;35021;49.214;12.270;2024-03-02T12:04:30;24.00;36.00
49184;DHT22;35021;49.214;12.270;2024-03-02T12:06:59;23.90;35.30
49184;DHT22;35021;49.214;12.270;2024-03-02T12:09:29;23.80;35.40
49184;DHT22;35021;49.214;12.270;2024-03-02T12:14:31;23.70;35.70
49184;DHT22;35021;49.214;12.270;2024-03-02T12:16:58;23.60;35.80
49184;DHT22;35021;49.214;12.270;2024-03-02T12:19:26;23.50;35.90
49184;DHT22;35021;49.214;12.270;2024-03-02T12:21:53;23.40;36.10
49184;DHT22;35021;49.214;12.270;2024-03-02T12:24:21;23.40;36.30
49184;DHT22;35021;49.214;12.270;2024-03-02T12:26:49;23.20;36.40
49184;DHT22;35021;49.214;12.270;2024-03-02T12:29:18;23.10;36.60
49184;DHT22;35021;49.214;12.270;2024-03-02T12:31:45;23.10;36.80
49184;DHT22;35021;49.214;12.270;2024-03-02T12:34:13;22.90;36.80
49184;DHT22;35021;49.214;12.270;2024-03-02T12:36:40;22.80;37.00
49184;DHT22;35021;49.214;12.270;2024-03-02T12:39:08;22.70;37.20
49184;DHT22;35021;49.214;12.270;2024-03-02T12:41:36;22.70;37.40
49184;DHT22;35021;49.214;12.270;2024-03-02T12:44:07;22.60;37.50
49184;DHT22;35021;49.214;12.270;2024-03-02T12:46:34;22.50;37.60
49184;DHT22;35021;49.214;12.270;2024-03-02T12:49:09;22.40;37.70
49184;DHT22;35021;49.214;12.270;2024-03-02T12:51:39;22.40;37.90
49184;DHT22;35021;49.214;12.270;2024-03-02T12:54:10;22.30;38.00
49184;DHT22;35021;49.214;12.270;2024-03-02T12:56:37;22.30;38.00
49184;DHT22;35021;49.214;12.270;2024-03-02T12:59:04;22.30;37.90
49184;DHT22;35021;49.214;12.270;2024-03-02T13:01:31;22.40;37.80
49184;DHT22;35021;49.214;12.270;2024-03-02T13:03:59;22.40;37.70
49184;DHT22;35021;49.214;12.270;2024-03-02T13:06:26;22.50;37.60
49184;DHT22;35021;49.214;12.270;2024-03-02T13:08:56;22.60;37.50
49184;DHT22;35021;49.214;12.270;2024-03-02T13:11:23;22.70;37.40
49184;DHT22;35021;49.214;12.270;2024-03-02T13:13:51;22.80;37.30
49184;DHT22;35021;49.214;12.270;2024-03-02T13:16:18;22.80;37.10
49184;DHT22;35021;49.214;12.270;2024-03-02T13:18:55;22.90;36.90
49184;DHT22;35021;49.214;12.270;2024-03-02T13:21:22;23.00;36.80
49184;DHT22;35021;49.214;12.270;2024-03-02T13:23:49;23.10;36.60
49184;DHT22;35021;49.214;12.270;2024-03-02T13:26:16;23.10;36.40
49184;DHT22;35021;49.214;12.270;2024-03-02T13:28:43;23.10;36.20
49184;DHT22;35021;49.214;12.270;2024-03-02T13:31:10;23.20;36.10
49184;DHT22;35021;49.214;12.270;2024-03-02T13:33:37;23.20;36.00
49184;DHT22;35021;49.214;12.270;2024-03-02T13:36:04;23.30;35.80
49184;DHT22;35021;49.214;12.270;2024-03-02T13:38:31;23.40;35.80
49184;DHT22;35021;49.214;12.270;2024-03-02T13:40:58;23.50;35.70
49184;DHT22;35021;49.214;12.270;2024-03-02T13:43:27;23.50;35.60
49184;DHT22;35021;49.214;12.270;2024-03-02T13:45:54;23.50;35.50
49184;DHT22;35021;49.214;12.270;2024-03-02T13:48:21;23.60;35.50
49184;DHT22;35021;49.214;12.270;2024-03-02T13:50:49;23.50;35.40
49184;DHT22;35021;49.214;12.270;2024-03-02T13:53:16;23.50;35.40
49184;DHT22;35021;49.214;12.270;2024-03-02T13:55:43;23.50;35.40
49184;DHT22;35021;49.214;12.270;2024-03-02T13:58:10;23.50;35.50
49184;DHT22;35021;49.214;12.270;2024-03-02T14:00:38;23.40;35.50
49184;DHT22;35021;49.214;12.270;2024-03-02T14:03:08;23.40;35.50
49184;DHT22;35021;49.214;12.270;2024-03-02T14:05:37;23.30;35.60
49184;DHT22;35021;49.214;12.270;2024-03-02T14:08:04;23.30;35.80
49184;DHT22;35021;49.214;12.270;2024-03-02T14:10:31;23.20;35.70
49184;DHT22;35021;49.214;12.270;2024-03-02T14:12:58;23.10;35.80
49184;DHT22;35021;49.214;12.270;2024-03-02T14:15:25;23.10;36.00
49184;DHT22;35021;49.214;12.270;2024-03-02T14:17:52;23.10;36.10
49184;DHT22;35021;49.214;12.270;2024-03-02T14:20:19;23.10;36.00
49184;DHT22;35021;49.214;12.270;2024-03-02T14:22:49;23.10;36.00
49184;DHT22;35021;49.214;12.270;2024-03-02T14:25:16;23.20;36.60
49184;DHT22;35021;49.214;12.270;2024-03-02T14:27:44;23.20;35.80
49184;DHT22;35021;49.214;12.270;2024-03-02T14:30:15;23.30;35.80
49184;DHT22;35021;49.214;12.270;2024-03-02T14:32:42;23.40;35.90
49184;DHT22;35021;49.214;12.270;2024-03-02T14:35:09;23.40;35.80
49184;DHT22;35021;49.214;12.270;2024-03-02T14:37:37;23.40;35.70
49184;DHT22;35021;49.214;12.270;2024-03-02T14:40:04;23.30;35.70
49184;DHT22;35021;49.214;12.270;2024-03-02T14:42:33;23.40;35.90
49184;DHT22;35021;49.214;12.270;2024-03-02T14:45:00;23.30;35.80
49184;DHT22;35021;49.214;12.270;2024-03-02T14:47:33;23.20;35.90
49184;DHT22;35021;49.214;12.270;2024-03-02T14:50:02;23.20;36.10
49184;DHT22;35021;49.214;12.270;2024-03-02T14:52:33;23.10;36.20
49184;DHT22;35021;49.214;12.270;2024-03-02T14:55:00;23.00;36.30
49184;DHT22;35021;49.214;12.270;2024-03-02T14:57:30;23.00;36.30
49184;DHT22;35021;49.214;12.270;2024-03-02T14:59:57;23.00;36.30
49184;DHT22;35021;49.214;12.270;2024-03-02T15:02:24;23.00;36.30
49184;DHT22;35021;49.214;12.270;2024-03-02T15:04:51;23.00;36.20
49184;DHT22;35021;49.214;12.270;2024-03-02T15:07:18;22.90;36.20
49184;DHT22;35021;49.214;12.270;2024-03-02T15:09:45;23.00;36.30
49184;DHT22;35021;49.214;12.270;2024-03-02T15:12:12;23.00;36.20
49184;DHT22;35021;49.214;12.270;2024-03-02T15:14:40;23.00;36.20
49184;DHT22;35021;49.214;12.270;2024-03-02T15:17:12;23.00;36.10
49184;DHT22;35021;49.214;12.270;2024-03-02T15:19:42;23.00;36.10
49184;DHT22;35021;49.214;12.270;2024-03-02T15:22:12;22.90;36.10
49184;DHT22;35021;49.214;12.270;2024-03-02T15:24:40;22.90;36.20
49184;DHT22;35021;49.214;12.270;2024-03-02T15:27:07;22.90;36.30
49184;DHT22;35021;49.214;12.270;2024-03-02T15:29:35;22.90;36.40